Aeroporto :
LOGIN :

Iscrizione | Disclaimer

   EN    FR    IT 

 










Sommario :    VFR   VFR Marginale   IFR   IFR Intensivo   IFR Molto Intensivo
Visibilità : 
Base nubi : 
>= 8 km
>= 3000ft
5 / 8 km
1000 / 3000 ft
1500m / 5 km
500 / 1000 ft
800 / 1500m
200 / 500 ft
< 800m
< 200 ft
Simboli :   Temporali  Nebbia  Neve Forte  Precipitazioni Forti  Vento > 20 kt
SIGMETs :   Varie  Temporali  Ghiacco  Turbolenza  Onda orograficha  Ceneri Vulcaniche






- Altitudine del aeroporto : 390 ft
- Codice IATA : NQY


EGHQ - Newquay

ULTIMO METAR :
  • 091950Z 18004KT 9999 FEW021 06/04 Q1026

METARs OBSOLETI :
  • 091920Z 18003KT 9999 SCT021 06/04 Q1026
  • 091850Z 25003KT 9999 FEW020 08/05 Q1025
  • 091820Z 29006KT 9999 FEW020 07/05 Q1026
  • 091750Z 31006KT 9999 FEW024 07/04 Q1025
  • 091720Z 31008KT 9999 FEW024 07/04 Q1025

TAF TAF EGHQ
Valido dal 09 a 18 ore il 10 a 03 ore UTC


091707Z 0918/1003 30009KT 9999 SCT020
BECMG 1000/1003 19012KT



MetMap, La meteo Aeronautica in un colpo d'occhio ! - Copyright ORBIFLY Dicembre 2007 - Disclaimer

ORBIFLY MET'MAP TEAM :

Programmazione e sviluppo : Alexandra Zaïnal
Concezione : Baudouin d'Aumeries
Aiuto per la programmazione : Marc-Olivier Méhu
Supporto tecnico e logistico : Manuel Goepfert
Aiuto per la traduzione : Arnaldo La Scala

Contatto : metmap@orbifly.com




FONTI E CREDITI :

   NOAA